createdAt,value
2022-09-15T00:01:17.079Z,97659.06
2022-09-15T00:03:44.935Z,97659.84
2022-09-15T00:06:13.252Z,97657.91
2022-09-15T00:08:42.457Z,97645.53
2022-09-15T00:11:25.669Z,97639.78
2022-09-15T00:13:54.945Z,97635.69
2022-09-15T00:16:26.728Z,97630.97
2022-09-15T00:18:54.433Z,97630.41
2022-09-15T00:21:32.013Z,97619.94
2022-09-15T00:24:01.991Z,97623.53
2022-09-15T00:26:31.792Z,97611.69
2022-09-15T00:29:00.907Z,97618.31
2022-09-15T00:31:31.235Z,97630.94
2022-09-15T00:34:02.989Z,97633.72
2022-09-15T00:36:33.207Z,97626.28
2022-09-15T00:39:00.863Z,97629.03
2022-09-15T00:41:28.452Z,97621.59
2022-09-15T00:44:18.779Z,97626.00
2022-09-15T00:47:09.660Z,97621.88
2022-09-15T00:49:43.496Z,97617.75
2022-09-15T00:52:52.094Z,97616.66
2022-09-15T00:55:37.551Z,97622.13
2022-09-15T00:58:13.142Z,97614.72
2022-09-15T01:00:55.572Z,97608.41
2022-09-15T01:03:26.240Z,97601.53
2022-09-15T01:06:34.089Z,97614.47
2022-09-15T01:09:33.392Z,97614.19
2022-09-15T01:12:01.271Z,97616.63
2022-09-15T01:14:28.589Z,97618.53
2022-09-15T01:17:40.281Z,97612.78
2022-09-15T01:20:49.296Z,97610.31
2022-09-15T01:24:33.888Z,97599.31
2022-09-15T01:27:43.928Z,97597.41
2022-09-15T01:30:24.329Z,97600.16
2022-09-15T01:33:23.967Z,97599.06
2022-09-15T01:36:23.348Z,97613.09
2022-09-15T01:39:18.476Z,97624.34
2022-09-15T01:42:03.948Z,97627.09
2022-09-15T01:44:51.822Z,97619.94
2022-09-15T01:47:22.148Z,97619.94
2022-09-15T01:50:13.088Z,97623.81
2022-09-15T01:52:49.609Z,97626.53
2022-09-15T01:55:48.946Z,97638.31
2022-09-15T01:58:17.482Z,97631.97
2022-09-15T02:01:17.007Z,97632.78
2022-09-15T02:04:13.117Z,97631.47
2022-09-15T02:07:47.799Z,97629.22
2022-09-15T02:10:42.111Z,97617.16
2022-09-15T02:13:34.069Z,97625.69
2022-09-15T02:16:02.284Z,97625.94
2022-09-15T02:19:21.898Z,97612.78
2022-09-15T02:22:41.329Z,97623.53
2022-09-15T02:25:31.199Z,97627.31
2022-09-15T02:28:09.068Z,97623.25
2022-09-15T02:30:42.433Z,97626.00
2022-09-15T02:33:19.838Z,97613.59
2022-09-15T02:35:47.528Z,97616.66
2022-09-15T02:38:15.142Z,97610.84
2022-09-15T02:40:44.693Z,97613.31
2022-09-15T02:43:17.825Z,97617.41
2022-09-15T02:45:45.918Z,97608.94
2022-09-15T02:48:13.420Z,97602.59
2022-09-15T02:50:41.249Z,97612.75
2022-09-15T02:53:09.138Z,97610.00
2022-09-15T02:55:36.438Z,97610.81
2022-09-15T02:58:03.901Z,97609.94
2022-09-15T03:00:32.471Z,97611.34
2022-09-15T03:02:59.935Z,97615.47
2022-09-15T03:05:30.590Z,97617.97
2022-09-15T03:07:58.371Z,97610.53
2022-09-15T03:10:26.760Z,97609.97
2022-09-15T03:12:56.249Z,97605.59
2022-09-15T03:15:28.612Z,97619.38
2022-09-15T03:17:56.690Z,97613.56
2022-09-15T03:20:31.307Z,97598.72
2022-09-15T03:22:58.691Z,97607.53
2022-09-15T03:25:26.963Z,97614.06
2022-09-15T03:27:54.312Z,97608.91
2022-09-15T03:30:21.580Z,97611.63
2022-09-15T03:32:49.061Z,97624.84
2022-09-15T03:35:16.414Z,97652.75
2022-09-15T03:37:43.706Z,97642.88
2022-09-15T03:40:11.328Z,97629.19
2022-09-15T03:42:38.677Z,97623.66
2022-09-15T03:45:06.788Z,97624.31
2022-09-15T03:47:35.039Z,97605.03
2022-09-15T03:50:02.294Z,97616.56
2022-09-15T03:52:32.164Z,97628.38
2022-09-15T03:54:59.657Z,97627.53
2022-09-15T03:57:26.958Z,97626.41
2022-09-15T03:59:54.215Z,97612.97
2022-09-15T04:02:21.618Z,97638.53
2022-09-15T04:04:49.481Z,97629.38
2022-09-15T04:07:16.812Z,97630.75
2022-09-15T04:09:44.057Z,97623.84
2022-09-15T04:12:11.637Z,97634.84
2022-09-15T04:14:38.915Z,97628.56
2022-09-15T04:17:06.255Z,97640.97
2022-09-15T04:19:33.508Z,97634.13
2022-09-15T04:22:00.773Z,97627.25
2022-09-15T04:24:28.179Z,97639.34
2022-09-15T04:26:55.450Z,97628.81
2022-09-15T04:29:23.319Z,97620.31
2022-09-15T04:31:51.126Z,97612.41
2022-09-15T04:34:18.454Z,97616.28
2022-09-15T04:36:46.628Z,97617.78
2022-09-15T04:39:13.987Z,97628.53
2022-09-15T04:41:41.248Z,97619.84
2022-09-15T04:44:08.796Z,97626.97
2022-09-15T04:46:36.144Z,97625.75
2022-09-15T04:49:05.267Z,97621.09
2022-09-15T04:51:32.567Z,97625.22
2022-09-15T04:54:00.069Z,97619.31
2022-09-15T04:56:28.688Z,97616.72
2022-09-15T04:59:03.840Z,97614.53
2022-09-15T05:01:35.988Z,97611.53
2022-09-15T05:04:04.329Z,97610.94
2022-09-15T05:06:32.512Z,97620.63
2022-09-15T05:08:59.909Z,97618.63
2022-09-15T05:11:28.420Z,97627.16
2022-09-15T05:13:55.984Z,97631.94
2022-09-15T05:16:30.811Z,97642.06
2022-09-15T05:19:03.116Z,97645.53
2022-09-15T05:21:30.557Z,97647.22
2022-09-15T05:23:58.302Z,97636.56
2022-09-15T05:26:29.601Z,97624.56
2022-09-15T05:28:57.890Z,97627.88
2022-09-15T05:31:33.755Z,97632.34
2022-09-15T05:34:05.631Z,97629.56
2022-09-15T05:36:33.783Z,97627.94
2022-09-15T05:39:01.847Z,97623.28
2022-09-15T05:41:30.355Z,97618.88
2022-09-15T05:43:59.255Z,97637.34
2022-09-15T05:46:29.214Z,97635.34
2022-09-15T05:48:58.867Z,97637.28
2022-09-15T05:51:27.634Z,97634.34
2022-09-15T05:53:54.885Z,97626.38
2022-09-15T05:56:22.433Z,97639.00
2022-09-15T05:58:49.968Z,97644.78
2022-09-15T06:01:28.807Z,97649.22
2022-09-15T06:03:58.359Z,97643.44
2022-09-15T06:06:26.395Z,97640.94
2022-09-15T06:08:59.148Z,97643.75
2022-09-15T06:11:33.674Z,97637.16
2022-09-15T06:14:06.133Z,97644.88
2022-09-15T06:16:35.521Z,97637.88
2022-09-15T06:19:03.498Z,97644.97
2022-09-15T06:21:32.996Z,97661.44
2022-09-15T06:24:07.134Z,97661.59
2022-09-15T06:26:35.020Z,97664.13
2022-09-15T06:29:05.249Z,97666.91
2022-09-15T06:31:36.012Z,97665.25
2022-09-15T06:34:05.283Z,97670.69
2022-09-15T06:36:33.337Z,97667.53
2022-09-15T06:39:00.674Z,97680.53
2022-09-15T06:41:47.074Z,97676.28
2022-09-15T06:44:21.064Z,97680.31
2022-09-15T06:46:49.304Z,97672.91
2022-09-15T06:49:17.135Z,97671.47
2022-09-15T06:51:46.203Z,97676.69
2022-09-15T06:54:16.001Z,97671.44
2022-09-15T06:56:44.087Z,97676.28
2022-09-15T06:59:16.924Z,97682.56
2022-09-15T07:01:44.244Z,97685.25
2022-09-15T07:04:11.557Z,97691.50
2022-09-15T07:06:40.200Z,97684.69
2022-09-15T07:09:07.567Z,97689.13
2022-09-15T07:11:35.140Z,97692.09
2022-09-15T07:14:02.621Z,97690.44
2022-09-15T07:16:30.063Z,97705.59
2022-09-15T07:19:00.485Z,97697.00
2022-09-15T07:21:30.358Z,97699.91
2022-09-15T07:23:59.383Z,97713.63
2022-09-15T07:26:30.801Z,97709.72
2022-09-15T07:29:05.115Z,97711.38
2022-09-15T07:31:37.675Z,97705.72
2022-09-15T07:34:06.601Z,97709.38
2022-09-15T07:36:34.197Z,97713.63
2022-09-15T07:39:04.855Z,97711.44
2022-09-15T07:41:33.239Z,97717.44
2022-09-15T07:44:01.450Z,97705.88
2022-09-15T07:46:32.804Z,97713.81
2022-09-15T07:49:02.774Z,97721.22
2022-09-15T07:51:30.645Z,97722.03
2022-09-15T07:54:00.585Z,97707.84
2022-09-15T07:56:27.850Z,97702.41
2022-09-15T07:58:55.101Z,97717.03
2022-09-15T08:01:22.748Z,97717.03
2022-09-15T08:03:52.534Z,97726.81
2022-09-15T08:06:24.314Z,97732.56
2022-09-15T08:08:56.322Z,97727.28
2022-09-15T08:11:27.480Z,97733.22
2022-09-15T08:13:54.800Z,97726.66
2022-09-15T08:16:24.744Z,97726.47
2022-09-15T08:18:55.498Z,97723.69
2022-09-15T08:21:23.648Z,97737.47
2022-09-15T08:23:59.358Z,97730.91
2022-09-15T08:26:29.346Z,97742.19
2022-09-15T08:28:57.895Z,97735.94
2022-09-15T08:31:25.582Z,97741.13
2022-09-15T08:33:55.388Z,97742.19
2022-09-15T08:36:24.562Z,97745.03
2022-09-15T08:38:52.113Z,97747.78
2022-09-15T08:41:53.036Z,97750.81
2022-09-15T08:44:49.457Z,97745.31
2022-09-15T08:47:31.836Z,97749.22
2022-09-15T08:50:20.840Z,97751.13
2022-09-15T08:53:35.616Z,97756.94
2022-09-15T08:56:17.176Z,97756.34
2022-09-15T08:58:46.133Z,97761.81
2022-09-15T09:02:25.217Z,97762.13
2022-09-15T09:05:11.224Z,97756.69
2022-09-15T09:08:50.928Z,97751.50
2022-09-15T09:12:19.212Z,97767.44
2022-09-15T09:15:35.701Z,97766.38
2022-09-15T09:18:58.876Z,97776.78
2022-09-15T09:21:42.970Z,97764.44
2022-09-15T09:24:48.870Z,97760.81
2022-09-15T09:27:27.163Z,97761.03
2022-09-15T09:30:25.065Z,97763.63
2022-09-15T09:33:30.463Z,97760.56
2022-09-15T09:36:02.418Z,97743.22
2022-09-15T09:38:40.628Z,97749.19
2022-09-15T09:41:35.510Z,97739.81
2022-09-15T09:44:09.420Z,97737.63
2022-09-15T09:46:36.758Z,97745.03
2022-09-15T09:49:25.333Z,97743.06
2022-09-15T09:51:57.163Z,97751.38
2022-09-15T09:54:28.641Z,97739.75
2022-09-15T09:57:30.661Z,97744.84
2022-09-15T09:59:58.489Z,97741.53
2022-09-15T10:02:28.778Z,97738.00
2022-09-15T10:05:20.195Z,97746.09
2022-09-15T10:07:48.768Z,97735.34
2022-09-15T10:10:28.693Z,97739.13
2022-09-15T10:12:57.421Z,97732.56
2022-09-15T10:15:34.045Z,97732.59
2022-09-15T10:18:01.823Z,97730.34
2022-09-15T10:20:49.512Z,97729.56
2022-09-15T10:23:22.569Z,97735.03
2022-09-15T10:25:59.105Z,97735.84
2022-09-15T10:28:28.601Z,97738.25
2022-09-15T10:31:13.449Z,97744.28
2022-09-15T10:33:47.632Z,97739.38
2022-09-15T10:36:32.290Z,97743.13
2022-09-15T10:39:48.378Z,97745.63
2022-09-15T10:42:53.781Z,97735.63
2022-09-15T10:45:48.301Z,97738.72
2022-09-15T10:48:58.032Z,97739.31
2022-09-15T10:52:14.817Z,97733.84
2022-09-15T10:55:52.630Z,97724.03
2022-09-15T10:58:46.094Z,97729.28
2022-09-15T11:01:32.116Z,97731.03
2022-09-15T11:04:49.895Z,97732.44
2022-09-15T11:08:04.101Z,97735.78
2022-09-15T11:11:16.795Z,97732.81
2022-09-15T11:14:33.061Z,97726.75
2022-09-15T11:17:39.463Z,97730.03
2022-09-15T11:21:10.553Z,97733.88
2022-09-15T11:24:08.800Z,97729.75
2022-09-15T11:26:48.524Z,97724.28
2022-09-15T11:30:26.241Z,97735.81
2022-09-15T11:33:31.176Z,97731.72
2022-09-15T11:36:32.308Z,97731.69
2022-09-15T11:39:25.740Z,97724.78
2022-09-15T11:42:11.377Z,97723.44
2022-09-15T11:44:43.448Z,97726.13
2022-09-15T11:47:45.184Z,97727.78
2022-09-15T11:50:34.927Z,97732.78
2022-09-15T11:53:59.613Z,97725.06
2022-09-15T11:56:39.991Z,97729.78
2022-09-15T12:00:13.228Z,97723.13
2022-09-15T12:03:03.457Z,97734.16
2022-09-15T12:05:48.537Z,97720.16
2022-09-15T12:08:37.465Z,97731.69
2022-09-15T12:11:16.316Z,97726.75
2022-09-15T12:13:44.009Z,97730.88
2022-09-15T12:16:12.546Z,97723.09
2022-09-15T12:19:36.553Z,97727.00
2022-09-15T12:22:29.052Z,97731.97
2022-09-15T12:25:23.169Z,97710.19
2022-09-15T12:28:24.816Z,97734.72
2022-09-15T12:31:36.293Z,97722.03
2022-09-15T12:34:35.620Z,97730.34
2022-09-15T12:37:16.165Z,97723.19
2022-09-15T12:39:49.513Z,97727.84
2022-09-15T12:42:33.030Z,97731.41
2022-09-15T12:45:54.222Z,97726.47
2022-09-15T12:48:33.234Z,97732.53
2022-09-15T12:51:10.551Z,97722.63
2022-09-15T12:53:52.901Z,97725.09
2022-09-15T12:56:28.376Z,97722.31
2022-09-15T12:58:56.292Z,97722.63
2022-09-15T13:01:26.248Z,97719.56
2022-09-15T13:03:57.828Z,97726.19
2022-09-15T13:06:34.897Z,97722.59
2022-09-15T13:09:01.942Z,97729.75
2022-09-15T13:11:37.443Z,97724.53
2022-09-15T13:14:07.982Z,97721.78
2022-09-15T13:16:41.239Z,97734.03
2022-09-15T13:19:41.017Z,97730.13
2022-09-15T13:22:27.111Z,97737.13
2022-09-15T13:25:20.336Z,97732.78
2022-09-15T13:28:00.037Z,97736.38
2022-09-15T13:31:19.481Z,97738.88
2022-09-15T13:35:13.834Z,97731.44
2022-09-15T13:38:30.907Z,97733.34
2022-09-15T13:41:46.514Z,97718.75
2022-09-15T13:44:58.703Z,97725.88
2022-09-15T13:48:42.651Z,97726.75
2022-09-15T13:51:29.377Z,97712.88
2022-09-15T13:54:05.173Z,97708.84
2022-09-15T13:56:41.252Z,97716.25
2022-09-15T13:59:25.080Z,97705.81
2022-09-15T14:01:53.940Z,97723.44
2022-09-15T14:04:30.552Z,97705.25
2022-09-15T14:07:01.838Z,97706.34
2022-09-15T14:09:42.123Z,97706.91
2022-09-15T14:12:14.960Z,97694.50
2022-09-15T14:14:54.059Z,97701.41
2022-09-15T14:17:25.687Z,97712.69
2022-09-15T14:19:59.251Z,97697.25
2022-09-15T14:22:34.984Z,97702.22
2022-09-15T14:25:17.020Z,97700.31
2022-09-15T14:27:49.883Z,97696.19
2022-09-15T14:30:32.072Z,97698.09
2022-09-15T14:33:02.295Z,97698.34
2022-09-15T14:35:37.155Z,97706.09
2022-09-15T14:38:04.680Z,97700.31
2022-09-15T14:40:39.421Z,97704.16
2022-09-15T14:43:40.423Z,97707.75
2022-09-15T14:46:18.492Z,97703.63
2022-09-15T14:48:45.813Z,97705.84
2022-09-15T14:51:28.521Z,97711.06
2022-09-15T14:54:00.014Z,97710.22
2022-09-15T14:56:38.345Z,97726.47
2022-09-15T14:59:23.437Z,97735.53
2022-09-15T15:02:29.547Z,97735.53
2022-09-15T15:05:21.378Z,97741.56
2022-09-15T15:07:50.420Z,97731.31
2022-09-15T15:10:32.208Z,97739.66
2022-09-15T15:13:16.061Z,97747.94
2022-09-15T15:15:44.993Z,97738.56
2022-09-15T15:18:42.061Z,97745.72
2022-09-15T15:21:45.199Z,97741.88
2022-09-15T15:24:15.525Z,97746.78
2022-09-15T15:26:50.028Z,97744.34
2022-09-15T15:29:47.884Z,97743.78
2022-09-15T15:32:25.111Z,97742.13
2022-09-15T15:35:01.351Z,97740.47
2022-09-15T15:37:33.755Z,97742.94
2022-09-15T15:40:07.109Z,97758.25
2022-09-15T15:42:35.108Z,97750.81
2022-09-15T15:45:25.639Z,97750.38
2022-09-15T15:47:54.975Z,97755.50
2022-09-15T15:50:28.300Z,97759.56
2022-09-15T15:52:55.665Z,97771.00
2022-09-15T15:55:36.864Z,97770.31
2022-09-15T15:58:05.088Z,97769.78
2022-09-15T16:00:51.022Z,97774.44
2022-09-15T16:03:21.799Z,97779.34
2022-09-15T16:06:03.013Z,97777.59
2022-09-15T16:08:44.734Z,97777.41
2022-09-15T16:11:15.926Z,97775.44
2022-09-15T16:13:43.545Z,97781.19
2022-09-15T16:16:26.489Z,97789.00
2022-09-15T16:18:54.553Z,97795.91
2022-09-15T16:21:39.516Z,97795.38
2022-09-15T16:24:14.763Z,97793.63
2022-09-15T16:26:43.424Z,97804.72
2022-09-15T16:29:11.667Z,97812.19
2022-09-15T16:31:39.373Z,97815.31
2022-09-15T16:34:09.886Z,97817.03
2022-09-15T16:36:37.107Z,97811.34
2022-09-15T16:39:04.591Z,97810.09
2022-09-15T16:41:34.859Z,97814.28
2022-09-15T16:44:17.552Z,97812.13
2022-09-15T16:46:45.587Z,97800.03
2022-09-15T16:49:12.874Z,97806.03
2022-09-15T16:51:40.154Z,97804.28
2022-09-15T16:54:25.678Z,97806.25
2022-09-15T16:56:52.944Z,97809.06
2022-09-15T16:59:20.281Z,97807.31
2022-09-15T17:01:47.726Z,97805.34
2022-09-15T17:04:16.920Z,97810.75
2022-09-15T17:06:48.716Z,97802.31
2022-09-15T17:09:16.059Z,97814.72
2022-09-15T17:11:43.389Z,97821.06
2022-09-15T17:14:16.434Z,97823.19
2022-09-15T17:16:47.258Z,97813.00
2022-09-15T17:19:14.633Z,97811.63
2022-09-15T17:21:41.924Z,97803.69
2022-09-15T17:24:09.842Z,97812.03
2022-09-15T17:26:37.347Z,97805.06
2022-09-15T17:29:05.671Z,97803.94
2022-09-15T17:31:33.147Z,97810.31
2022-09-15T17:34:00.867Z,97803.88
2022-09-15T17:36:28.383Z,97810.31
2022-09-15T17:38:55.735Z,97808.88
2022-09-15T17:41:23.019Z,97813.06
2022-09-15T17:43:51.620Z,97824.41
2022-09-15T17:46:19.241Z,97826.06
2022-09-15T17:48:46.581Z,97827.06
2022-09-15T17:51:17.564Z,97821.78
2022-09-15T17:53:47.801Z,97831.03
2022-09-15T17:56:15.241Z,97826.44
2022-09-15T17:58:43.126Z,97823.78
2022-09-15T18:01:14.581Z,97826.16
2022-09-15T18:03:45.078Z,97826.63
2022-09-15T18:06:12.571Z,97826.06
2022-09-15T18:08:41.350Z,97825.66
2022-09-15T18:11:14.405Z,97812.09
2022-09-15T18:13:41.981Z,97840.50
2022-09-15T18:16:15.546Z,97823.78
2022-09-15T18:18:43.434Z,97830.38
2022-09-15T18:21:28.644Z,97831.06
2022-09-15T18:23:56.705Z,97840.97
2022-09-15T18:26:26.664Z,97839.31
2022-09-15T18:28:55.375Z,97840.97
2022-09-15T18:31:22.840Z,97842.75
2022-09-15T18:33:50.155Z,97839.53
2022-09-15T18:36:17.747Z,97840.84
2022-09-15T18:38:45.251Z,97842.53
2022-09-15T18:41:13.034Z,97852.19
2022-09-15T18:43:40.375Z,97839.94
2022-09-15T18:46:07.874Z,97844.63
2022-09-15T18:48:35.207Z,97846.09
2022-09-15T18:51:06.985Z,97849.81
2022-09-15T18:53:37.716Z,97855.69
2022-09-15T18:56:16.215Z,97854.59
2022-09-15T18:58:43.520Z,97860.25
2022-09-15T19:01:10.854Z,97864.38
2022-09-15T19:03:44.011Z,97869.25
2022-09-15T19:06:12.483Z,97869.84
2022-09-15T19:08:40.346Z,97870.16
2022-09-15T19:11:09.363Z,97869.97
2022-09-15T19:13:36.787Z,97874.06
2022-09-15T19:16:08.638Z,97868.72
2022-09-15T19:18:36.844Z,97865.88
2022-09-15T19:21:11.880Z,97874.50
2022-09-15T19:23:39.642Z,97882.59
2022-09-15T19:26:13.697Z,97876.84
2022-09-15T19:28:42.394Z,97877.72
2022-09-15T19:31:10.985Z,97886.50
2022-09-15T19:33:39.203Z,97891.09
2022-09-15T19:36:28.498Z,97881.78
2022-09-15T19:39:00.246Z,97888.41
2022-09-15T19:41:27.732Z,97881.94
2022-09-15T19:43:55.195Z,97876.66
2022-09-15T19:46:25.584Z,97886.72
2022-09-15T19:48:54.083Z,97883.22
2022-09-15T19:51:22.508Z,97883.91
2022-09-15T19:53:53.342Z,97896.16
2022-09-15T19:56:25.992Z,97893.91
2022-09-15T19:58:56.504Z,97901.75
2022-09-15T20:01:28.032Z,97899.09
2022-09-15T20:03:58.064Z,97899.38
2022-09-15T20:06:31.559Z,97902.50
2022-09-15T20:08:59.812Z,97902.66
2022-09-15T20:11:31.724Z,97912.97
2022-09-15T20:13:59.932Z,97906.97
2022-09-15T20:16:29.849Z,97908.59
2022-09-15T20:18:57.576Z,97908.94
2022-09-15T20:21:49.186Z,97908.34
2022-09-15T20:24:20.010Z,97919.47
2022-09-15T20:26:48.147Z,97920.44
2022-09-15T20:29:15.519Z,97925.59
2022-09-15T20:31:43.529Z,97915.19
2022-09-15T20:34:11.712Z,97920.50
2022-09-15T20:36:39.969Z,97925.47
2022-09-15T20:39:13.536Z,97925.56
2022-09-15T20:41:46.290Z,97936.13
2022-09-15T20:44:14.891Z,97941.72
2022-09-15T20:46:42.369Z,97935.72
2022-09-15T20:49:11.294Z,97935.31
2022-09-15T20:51:38.614Z,97941.97
2022-09-15T20:54:06.206Z,97939.84
2022-09-15T20:56:36.498Z,97942.72
2022-09-15T20:59:06.112Z,97939.03
2022-09-15T21:01:38.755Z,97938.81
2022-09-15T21:04:08.832Z,97948.25
2022-09-15T21:06:37.205Z,97950.75
2022-09-15T21:09:05.873Z,97948.25
2022-09-15T21:11:34.074Z,97958.81
2022-09-15T21:14:03.205Z,97955.84
2022-09-15T21:16:30.937Z,97948.97
2022-09-15T21:18:59.206Z,97947.56
2022-09-15T21:21:31.372Z,97956.38
2022-09-15T21:24:07.289Z,97953.75
2022-09-15T21:27:10.256Z,97960.72
2022-09-15T21:29:37.651Z,97957.22
2022-09-15T21:32:05.099Z,97960.28
2022-09-15T21:34:32.416Z,97955.47
2022-09-15T21:37:00.029Z,97952.88
2022-09-15T21:39:27.576Z,97959.88
2022-09-15T21:41:54.916Z,97959.44
2022-09-15T21:44:22.189Z,97951.84
2022-09-15T21:46:49.532Z,97952.72
2022-09-15T21:49:18.236Z,97971.81
2022-09-15T21:51:45.769Z,97959.56
2022-09-15T21:54:15.379Z,97966.31
2022-09-15T21:56:42.800Z,97963.03
2022-09-15T21:59:11.340Z,97965.41
2022-09-15T22:01:41.456Z,97961.97
2022-09-15T22:04:10.530Z,97965.00
2022-09-15T22:06:41.544Z,97956.50
2022-09-15T22:09:16.358Z,97960.94
2022-09-15T22:11:45.428Z,97955.00
2022-09-15T22:14:13.310Z,97965.97
2022-09-15T22:16:42.843Z,97966.69
2022-09-15T22:19:12.354Z,97963.03
2022-09-15T22:21:42.024Z,97972.88
2022-09-15T22:24:13.583Z,97974.31
2022-09-15T22:26:42.797Z,97978.97
2022-09-15T22:29:10.914Z,97972.38
2022-09-15T22:31:38.763Z,97967.97
2022-09-15T22:34:06.290Z,97973.16
2022-09-15T22:36:34.036Z,97971.72
2022-09-15T22:39:05.543Z,97973.88
2022-09-15T22:41:39.511Z,97974.97
2022-09-15T22:44:16.665Z,97976.03
2022-09-15T22:46:43.968Z,97974.56
2022-09-15T22:49:11.289Z,97974.47
2022-09-15T22:51:38.591Z,97979.03
2022-09-15T22:54:06.042Z,97972.69
2022-09-15T22:56:33.319Z,97973.81
2022-09-15T22:59:00.825Z,97968.50
2022-09-15T23:01:31.101Z,97969.81
2022-09-15T23:04:03.386Z,97957.81
2022-09-15T23:06:34.350Z,97967.50
2022-09-15T23:09:09.238Z,97963.94
2022-09-15T23:11:39.832Z,97967.34
2022-09-15T23:14:16.845Z,97968.78
2022-09-15T23:16:45.089Z,97960.38
2022-09-15T23:19:13.911Z,97960.75
2022-09-15T23:21:41.225Z,97965.31
2022-09-15T23:24:08.799Z,97956.34
2022-09-15T23:26:36.582Z,97960.50
2022-09-15T23:29:03.866Z,97958.50
2022-09-15T23:31:31.210Z,97964.41
2022-09-15T23:33:58.501Z,97971.34
2022-09-15T23:36:26.670Z,97962.66
2022-09-15T23:38:54.066Z,97964.38
2022-09-15T23:41:21.623Z,97964.63
2022-09-15T23:43:49.720Z,97966.50
2022-09-15T23:46:17.438Z,97966.66
2022-09-15T23:48:45.168Z,97964.41
2022-09-15T23:51:12.997Z,97962.78
2022-09-15T23:53:40.363Z,97962.78
2022-09-15T23:56:08.112Z,97963.94
2022-09-15T23:58:36.202Z,97970.22
